Time;durP1;ratioP1;P1;durP2;ratioP2;P2;SDS_P1;SDS_P2;PMS_P1;PMS_P2;Temp;Humidity;BMP_temperature;BMP_pressure;BME280_temperature;BME280_humidity;BME280_pressure;Samples;Min_cycle;Max_cycle;Signal;HPM_P1;HPM_P2
2022/09/04 00:00:12;;;;;;;0.82;0.80;;;22.90;69.40;;;;;;5006625;28;20211;-70
2022/09/04 00:03:00;;;;;;;0.70;0.70;;;22.90;69.40;;;;;;5032431;28;20186;-71
2022/09/04 00:05:47;;;;;;;0.60;0.60;;;22.90;69.50;;;;;;5033701;28;20194;-70
2022/09/04 00:08:51;;;;;;;0.60;0.60;;;22.90;69.50;;;;;;5014984;28;20198;-70
2022/09/04 00:11:56;;;;;;;0.80;0.80;;;22.90;69.40;;;;;;5032171;28;20271;-71
2022/09/04 00:14:46;;;;;;;0.70;0.70;;;22.90;69.40;;;;;;5033193;28;20194;-70
2022/09/04 00:18:19;;;;;;;0.75;0.75;;;22.90;69.40;;;;;;5031673;28;20190;-71
2022/09/04 00:20:52;;;;;;;0.75;0.75;;;22.90;69.40;;;;;;4975181;28;20224;-71
2022/09/04 00:23:57;;;;;;;0.80;0.80;;;22.90;69.50;;;;;;4975247;28;20192;-70
2022/09/04 00:27:07;;;;;;;0.70;0.70;;;22.90;69.40;;;;;;5018251;28;20203;-70
2022/09/04 00:30:00;;;;;;;3.30;0.98;;;22.90;69.50;;;;;;5030795;28;20242;-71
2022/09/04 00:32:53;;;;;;;1.42;0.93;;;22.90;69.50;;;;;;5031720;28;20215;-71
2022/09/04 00:35:30;;;;;;;0.60;0.60;;;22.80;69.30;;;;;;5031742;28;20183;-71
2022/09/04 00:38:14;;;;;;;0.50;0.50;;;22.90;69.50;;;;;;5031136;28;20190;-71
2022/09/04 00:40:50;;;;;;;0.60;0.60;;;22.80;69.30;;;;;;5031391;28;20210;-71
2022/09/04 00:43:28;;;;;;;0.82;0.80;;;22.80;69.30;;;;;;5015367;28;20186;-70
2022/09/04 00:46:20;;;;;;;0.50;0.50;;;22.80;69.30;;;;;;5032706;28;20278;-71
2022/09/04 00:49:29;;;;;;;0.90;0.90;;;22.80;69.20;;;;;;5014941;28;20187;-71
2022/09/04 00:52:13;;;;;;;0.80;0.80;;;22.80;69.30;;;;;;5031312;28;20746;-71
2022/09/04 00:55:20;;;;;;;0.70;0.70;;;22.80;69.30;;;;;;5015056;28;20190;-71
2022/09/04 00:58:27;;;;;;;1.85;0.80;;;22.80;70.10;;;;;;5012288;28;20203;-70
2022/09/04 01:00:58;;;;;;;0.60;0.60;;;22.80;69.20;;;;;;5014672;28;20261;-70
2022/09/04 01:03:48;;;;;;;0.57;0.57;;;22.80;69.40;;;;;;5032413;28;20291;-71
2022/09/04 01:06:55;;;;;;;0.80;0.80;;;22.90;69.40;;;;;;5031260;28;20195;-71
2022/09/04 01:09:56;;;;;;;0.77;0.77;;;22.80;69.30;;;;;;5031989;28;20256;-71
2022/09/04 01:12:37;;;;;;;1.35;0.63;;;22.80;69.20;;;;;;5031054;28;20222;-71
2022/09/04 01:15:23;;;;;;;1.13;1.05;;;22.80;69.30;;;;;;5032106;28;20210;-70
2022/09/04 01:18:22;;;;;;;0.95;0.90;;;22.80;69.30;;;;;;5030182;28;20274;-71
2022/09/04 01:21:41;;;;;;;1.40;0.88;;;22.80;69.30;;;;;;5031143;28;20710;-70
2022/09/04 01:24:38;;;;;;;0.60;0.60;;;22.80;69.20;;;;;;5014352;28;20195;-70
2022/09/04 01:27:40;;;;;;;0.80;0.80;;;22.80;69.30;;;;;;5030260;28;20242;-71
2022/09/04 01:30:13;;;;;;;0.98;0.98;;;22.80;69.30;;;;;;5024116;28;20246;-71
2022/09/04 01:32:51;;;;;;;0.60;0.60;;;22.80;69.30;;;;;;5031568;28;20726;-71
2022/09/04 01:35:41;;;;;;;1.50;1.05;;;22.80;69.20;;;;;;5030961;28;20643;-70
2022/09/04 01:38:46;;;;;;;0.68;0.68;;;22.80;69.10;;;;;;5030281;28;20663;-71
2022/09/04 01:41:32;;;;;;;0.68;0.68;;;22.80;69.30;;;;;;5031505;28;20207;-70
2022/09/04 01:43:59;;;;;;;0.77;0.77;;;22.80;69.30;;;;;;5014093;28;20187;-71
2022/09/04 01:46:56;;;;;;;0.70;0.70;;;22.80;69.20;;;;;;5025290;28;20275;-70
2022/09/04 01:49:52;;;;;;;2.45;0.98;;;22.80;69.30;;;;;;5011958;28;20215;-71
2022/09/04 01:52:50;;;;;;;0.68;0.68;;;22.80;69.20;;;;;;5011458;28;20245;-70
2022/09/04 01:55:43;;;;;;;0.80;0.80;;;22.80;69.20;;;;;;5035421;28;20195;-71
2022/09/04 01:58:47;;;;;;;0.70;0.70;;;22.80;69.30;;;;;;5034412;28;20311;-70
2022/09/04 02:01:18;;;;;;;0.65;0.65;;;22.80;69.20;;;;;;5040429;28;20221;-71
2022/09/04 02:03:52;;;;;;;0.77;0.77;;;22.70;69.00;;;;;;5026296;28;20270;-70
2022/09/04 02:06:42;;;;;;;0.75;0.75;;;22.80;69.30;;;;;;5030386;28;20187;-71
2022/09/04 02:09:53;;;;;;;0.60;0.60;;;22.70;69.60;;;;;;5022974;28;20195;-71
2022/09/04 02:12:27;;;;;;;0.90;0.90;;;22.80;69.20;;;;;;5024123;28;20227;-71
2022/09/04 02:15:30;;;;;;;0.80;0.80;;;22.70;69.10;;;;;;5013793;28;20186;-70
2022/09/04 02:18:34;;;;;;;0.75;0.75;;;22.70;69.00;;;;;;5046523;28;20203;-71
2022/09/04 02:21:31;;;;;;;0.90;0.90;;;22.70;69.10;;;;;;5030373;28;20207;-71
2022/09/04 02:24:40;;;;;;;0.80;0.80;;;22.70;69.10;;;;;;5013618;28;20199;-70
2022/09/04 02:27:21;;;;;;;1.10;1.00;;;22.70;69.00;;;;;;5013336;28;20233;-70
2022/09/04 02:30:12;;;;;;;0.80;0.80;;;22.80;69.20;;;;;;5030223;28;20225;-71
2022/09/04 02:33:10;;;;;;;0.85;0.85;;;22.70;69.10;;;;;;5030022;28;20225;-71
2022/09/04 02:36:33;;;;;;;1.17;1.10;;;22.80;69.20;;;;;;5018216;28;20282;-70
2022/09/04 02:39:39;;;;;;;0.60;0.60;;;22.70;69.00;;;;;;5009285;28;20208;-71
2022/09/04 02:42:38;;;;;;;0.80;0.80;;;22.70;69.10;;;;;;5010409;28;20195;-70
2022/09/04 02:45:27;;;;;;;1.00;1.00;;;22.70;69.00;;;;;;5027070;28;20545;-71
2022/09/04 02:48:27;;;;;;;1.08;1.08;;;22.80;69.10;;;;;;5009995;28;20188;-71
2022/09/04 02:51:12;;;;;;;0.80;0.80;;;22.70;69.00;;;;;;5026626;28;20688;-71
2022/09/04 02:53:59;;;;;;;0.80;0.80;;;22.70;69.10;;;;;;5028086;28;20188;-71
2022/09/04 02:56:59;;;;;;;0.70;0.70;;;22.70;69.10;;;;;;5030023;28;20647;-70
2022/09/04 02:59:57;;;;;;;0.80;0.80;;;22.70;69.00;;;;;;5027792;28;20211;-70
2022/09/04 03:02:36;;;;;;;0.80;0.80;;;22.70;69.00;;;;;;5014192;28;20203;-70
2022/09/04 03:05:33;;;;;;;0.85;0.85;;;22.70;69.10;;;;;;5013674;28;20275;-71
2022/09/04 03:08:34;;;;;;;0.70;0.70;;;22.70;69.00;;;;;;5014174;28;20187;-71
2022/09/04 03:11:35;;;;;;;0.70;0.70;;;22.70;69.00;;;;;;4984383;28;20299;-70
2022/09/04 03:14:33;;;;;;;0.75;0.65;;;22.70;69.00;;;;;;5002673;28;20227;-71
2022/09/04 03:17:20;;;;;;;0.80;0.80;;;22.70;69.00;;;;;;5013069;28;20172;-71
2022/09/04 03:20:27;;;;;;;0.70;0.70;;;22.70;69.00;;;;;;5013642;28;20215;-71
2022/09/04 03:23:12;;;;;;;0.68;0.68;;;22.70;69.00;;;;;;5005648;28;20208;-71
2022/09/04 03:26:13;;;;;;;0.70;0.70;;;22.70;69.00;;;;;;5009930;28;20217;-71
2022/09/04 03:29:14;;;;;;;0.70;0.70;;;22.70;69.00;;;;;;5021932;28;20207;-71
2022/09/04 03:32:04;;;;;;;0.80;0.80;;;22.70;69.00;;;;;;5034359;28;20702;-71
2022/09/04 03:34:56;;;;;;;0.68;0.68;;;22.70;69.00;;;;;;5050531;28;20213;-70
2022/09/04 03:37:52;;;;;;;0.70;0.70;;;22.60;68.80;;;;;;5033571;28;20179;-70
2022/09/04 03:41:12;;;;;;;0.90;0.90;;;22.70;69.00;;;;;;5032983;28;20210;-71
2022/09/04 03:43:46;;;;;;;0.90;0.90;;;22.70;69.00;;;;;;4978790;28;20648;-71
2022/09/04 03:46:50;;;;;;;0.90;0.90;;;22.60;68.80;;;;;;5010174;28;20618;-70
2022/09/04 03:49:33;;;;;;;0.60;0.60;;;22.70;69.70;;;;;;5016154;28;20211;-70
2022/09/04 03:52:13;;;;;;;0.85;0.85;;;22.60;68.90;;;;;;5033641;28;20210;-70
2022/09/04 03:55:14;;;;;;;0.70;0.70;;;22.70;69.00;;;;;;5030857;28;20183;-71
2022/09/04 03:57:55;;;;;;;1.58;0.75;;;22.60;68.90;;;;;;5028625;28;20192;-71
2022/09/04 04:00:21;;;;;;;0.88;0.88;;;22.60;68.70;;;;;;5026601;28;20253;-71
2022/09/04 04:03:09;;;;;;;0.98;0.80;;;22.60;68.70;;;;;;5033542;28;20191;-71
2022/09/04 04:06:08;;;;;;;0.57;0.57;;;22.60;68.80;;;;;;5032839;28;20183;-71
2022/09/04 04:09:12;;;;;;;0.80;0.80;;;22.60;68.90;;;;;;5031504;28;20195;-71
2022/09/04 04:11:58;;;;;;;0.70;0.70;;;22.60;68.80;;;;;;5032181;28;20276;-71
2022/09/04 04:15:11;;;;;;;0.80;0.80;;;22.60;68.70;;;;;;5033164;28;20215;-70
2022/09/04 04:17:57;;;;;;;0.95;0.88;;;22.60;68.80;;;;;;5004304;28;20210;-70
2022/09/04 04:20:53;;;;;;;0.60;0.60;;;22.60;68.80;;;;;;5032227;28;20203;-71
2022/09/04 04:23:37;;;;;;;0.85;0.80;;;22.60;68.80;;;;;;5031528;28;20191;-71
2022/09/04 04:26:16;;;;;;;0.80;0.80;;;22.60;68.70;;;;;;5031903;28;20237;-71
2022/09/04 04:29:01;;;;;;;0.70;0.70;;;22.60;68.80;;;;;;5011997;28;20200;-71
2022/09/04 04:32:10;;;;;;;0.60;0.60;;;22.60;68.80;;;;;;5031382;28;20265;-71
2022/09/04 04:35:03;;;;;;;0.70;0.70;;;22.60;68.80;;;;;;5029789;28;20187;-70
2022/09/04 04:38:06;;;;;;;0.80;0.80;;;22.60;68.70;;;;;;5030983;28;20192;-70
2022/09/04 04:40:51;;;;;;;0.70;0.70;;;22.60;68.80;;;;;;5015279;28;20230;-71
2022/09/04 04:43:36;;;;;;;0.80;0.80;;;22.60;68.80;;;;;;5032530;28;20206;-72
2022/09/04 04:46:44;;;;;;;0.68;0.68;;;22.60;68.70;;;;;;5031541;28;20659;-71
2022/09/04 04:49:56;;;;;;;0.82;0.60;;;22.60;68.70;;;;;;5032592;28;20194;-70
2022/09/04 04:53:13;;;;;;;0.82;0.82;;;22.60;68.60;;;;;;5032446;28;20206;-70
2022/09/04 04:56:13;;;;;;;0.77;0.77;;;22.60;68.70;;;;;;5014786;28;20183;-71
2022/09/04 04:59:03;;;;;;;1.17;0.60;;;22.60;68.70;;;;;;5027454;28;20192;-71
2022/09/04 05:01:55;;;;;;;0.60;0.60;;;22.60;68.60;;;;;;5031292;28;20190;-71
2022/09/04 05:04:35;;;;;;;0.70;0.70;;;22.60;68.70;;;;;;5014767;28;20183;-71
2022/09/04 05:07:33;;;;;;;0.70;0.70;;;22.60;68.80;;;;;;5030470;28;20274;-71
2022/09/04 05:10:31;;;;;;;0.80;0.80;;;22.60;68.70;;;;;;5030775;28;20222;-70
2022/09/04 05:13:45;;;;;;;0.60;0.60;;;22.60;68.60;;;;;;5027095;28;20222;-71
2022/09/04 05:16:29;;;;;;;0.70;0.70;;;22.60;68.70;;;;;;5030431;28;20267;-71
2022/09/04 05:19:14;;;;;;;0.80;0.80;;;22.60;68.70;;;;;;5030457;28;20195;-71
2022/09/04 05:22:10;;;;;;;0.65;0.65;;;22.50;68.50;;;;;;5014306;28;20183;-71
2022/09/04 05:25:07;;;;;;;0.70;0.70;;;22.60;68.60;;;;;;5030396;28;20195;-71
2022/09/04 05:27:46;;;;;;;0.70;0.70;;;22.50;68.60;;;;;;5030197;28;20188;-71
2022/09/04 05:30:19;;;;;;;0.52;0.52;;;22.50;68.60;;;;;;5030582;28;20313;-71
2022/09/04 05:33:04;;;;;;;0.70;0.70;;;22.60;68.70;;;;;;5030660;28;20297;-71
2022/09/04 05:35:58;;;;;;;0.82;0.80;;;22.60;68.70;;;;;;5030889;28;20225;-70
2022/09/04 05:38:38;;;;;;;0.80;0.80;;;22.50;68.50;;;;;;5029829;28;20187;-71
2022/09/04 05:41:56;;;;;;;0.60;0.60;;;22.50;68.50;;;;;;5032058;28;20281;-70
2022/09/04 05:45:11;;;;;;;0.75;0.75;;;22.60;68.60;;;;;;5030179;28;20198;-71
2022/09/04 05:48:11;;;;;;;0.60;0.60;;;22.60;68.60;;;;;;5014480;28;20199;-70
2022/09/04 05:51:11;;;;;;;0.70;0.70;;;22.60;68.50;;;;;;5027224;28;20287;-71
2022/09/04 05:54:11;;;;;;;0.52;0.52;;;22.60;68.70;;;;;;5010727;28;20270;-70
2022/09/04 05:57:15;;;;;;;0.60;0.60;;;22.60;68.60;;;;;;4994386;28;20226;-71
2022/09/04 05:59:56;;;;;;;0.57;0.57;;;22.60;68.50;;;;;;5026413;28;20246;-71
2022/09/04 06:02:49;;;;;;;0.60;0.60;;;22.50;68.60;;;;;;5030487;28;20650;-71
2022/09/04 06:05:45;;;;;;;0.80;0.80;;;22.50;68.60;;;;;;5030489;28;20189;-70
2022/09/04 06:08:56;;;;;;;1.20;0.70;;;22.50;68.60;;;;;;5029815;28;20211;-71
2022/09/04 06:11:45;;;;;;;0.70;0.70;;;22.50;68.50;;;;;;5030452;28;20237;-71
2022/09/04 06:14:48;;;;;;;0.73;0.73;;;22.50;68.60;;;;;;5010380;28;20378;-71
2022/09/04 06:17:43;;;;;;;0.70;0.70;;;22.50;68.50;;;;;;5029797;28;20237;-70
2022/09/04 06:20:41;;;;;;;0.68;0.68;;;22.60;68.60;;;;;;5030475;28;20294;-71
2022/09/04 06:23:44;;;;;;;0.60;0.60;;;22.50;68.50;;;;;;5030222;28;20188;-71
2022/09/04 06:26:33;;;;;;;0.60;0.60;;;22.50;68.60;;;;;;5013692;28;20217;-70
2022/09/04 06:29:07;;;;;;;0.80;0.80;;;22.50;68.60;;;;;;5031319;28;20683;-70
2022/09/04 06:32:04;;;;;;;0.73;0.73;;;22.50;68.60;;;;;;5017498;28;20206;-70
2022/09/04 06:34:52;;;;;;;0.85;0.85;;;22.50;68.50;;;;;;5033821;28;20195;-70
2022/09/04 06:38:03;;;;;;;0.85;0.60;;;22.50;68.60;;;;;;5017327;28;20371;-71
2022/09/04 06:40:52;;;;;;;0.95;0.80;;;22.50;68.60;;;;;;5033627;28;20203;-71
2022/09/04 06:43:41;;;;;;;0.60;0.60;;;22.50;68.60;;;;;;5033619;28;20195;-71
2022/09/04 06:46:29;;;;;;;0.77;0.77;;;22.50;68.60;;;;;;5033607;28;20237;-72
2022/09/04 06:49:11;;;;;;;0.50;0.50;;;22.50;68.60;;;;;;5016636;28;20191;-71
2022/09/04 06:52:11;;;;;;;0.70;0.70;;;22.50;68.60;;;;;;5050354;28;20473;-70
2022/09/04 06:54:40;;;;;;;0.50;0.50;;;22.50;68.70;;;;;;5017058;28;20371;-71
2022/09/04 06:57:17;;;;;;;0.70;0.70;;;22.50;68.70;;;;;;5034078;28;20172;-70
2022/09/04 07:00:09;;;;;;;0.50;0.50;;;22.60;68.80;;;;;;5016703;28;20686;-71
2022/09/04 07:03:13;;;;;;;0.57;0.57;;;22.60;68.90;;;;;;5033442;28;20191;-71
2022/09/04 07:06:05;;;;;;;0.63;0.63;;;22.50;68.80;;;;;;5033296;28;20551;-71
2022/09/04 07:09:04;;;;;;;0.68;0.68;;;22.50;68.80;;;;;;5033608;28;20207;-71
2022/09/04 07:12:13;;;;;;;0.80;0.80;;;22.50;68.80;;;;;;5049930;28;20207;-71
2022/09/04 07:15:03;;;;;;;0.77;0.77;;;22.50;68.90;;;;;;5033986;28;20253;-71
2022/09/04 07:17:46;;;;;;;0.60;0.60;;;22.50;68.80;;;;;;5014108;28;20208;-71
2022/09/04 07:20:54;;;;;;;0.47;0.47;;;22.50;68.80;;;;;;5013470;28;20200;-71
2022/09/04 07:23:43;;;;;;;0.70;0.70;;;22.50;68.90;;;;;;4997257;28;20192;-71
2022/09/04 07:26:12;;;;;;;0.73;0.73;;;22.50;69.10;;;;;;5013480;28;20197;-71
2022/09/04 07:29:03;;;;;;;0.50;0.50;;;22.50;68.90;;;;;;5003802;28;20203;-71
2022/09/04 07:31:40;;;;;;;0.80;0.80;;;22.50;69.00;;;;;;5016996;28;20429;-71
2022/09/04 07:34:39;;;;;;;0.70;0.68;;;22.60;69.10;;;;;;5050724;28;20619;-71
2022/09/04 07:37:26;;;;;;;1.23;0.70;;;22.50;69.00;;;;;;5032602;28;20183;-70
2022/09/04 07:40:33;;;;;;;0.80;0.80;;;22.50;69.00;;;;;;5033146;28;20284;-71
2022/09/04 07:43:22;;;;;;;0.63;0.63;;;22.60;69.20;;;;;;5005500;28;20211;-71
2022/09/04 07:46:21;;;;;;;0.80;0.80;;;22.50;69.00;;;;;;5033527;28;20187;-71
2022/09/04 07:49:03;;;;;;;0.80;0.80;;;22.50;69.00;;;;;;5031765;28;20188;-70
2022/09/04 07:51:44;;;;;;;0.60;0.60;;;22.60;69.20;;;;;;5033503;28;20217;-71
2022/09/04 07:54:23;;;;;;;0.80;0.80;;;22.60;69.20;;;;;;5033570;28;20190;-71
2022/09/04 07:57:30;;;;;;;0.80;0.80;;;22.60;69.10;;;;;;5032208;28;20191;-71
2022/09/04 08:00:22;;;;;;;0.70;0.70;;;22.60;69.40;;;;;;5033333;28;20215;-71
2022/09/04 08:03:10;;;;;;;0.60;0.60;;;22.60;69.00;;;;;;5032352;28;20214;-71
2022/09/04 08:05:56;;;;;;;1.10;0.70;;;22.70;68.90;;;;;;5032395;28;20191;-70
2022/09/04 08:09:09;;;;;;;0.70;0.70;;;22.80;68.80;;;;;;5048556;28;20310;-71
2022/09/04 08:11:59;;;;;;;0.63;0.63;;;22.80;68.70;;;;;;5032420;28;20221;-71
2022/09/04 08:14:53;;;;;;;0.80;0.80;;;22.90;68.60;;;;;;5031884;28;20191;-71
2022/09/04 08:17:42;;;;;;;0.77;0.77;;;22.90;68.60;;;;;;5031651;28;20282;-70
2022/09/04 08:20:37;;;;;;;0.77;0.77;;;22.90;68.60;;;;;;5021544;28;20238;-70
2022/09/04 08:23:42;;;;;;;0.60;0.60;;;22.90;68.60;;;;;;5032113;28;20187;-71
2022/09/04 08:26:35;;;;;;;0.60;0.60;;;23.00;68.60;;;;;;5032094;28;20324;-70
2022/09/04 08:29:57;;;;;;;0.68;0.68;;;23.00;68.50;;;;;;5014295;28;20206;-71
2022/09/04 08:33:14;;;;;;;0.73;0.73;;;23.00;68.70;;;;;;5031798;28;20241;-71
2022/09/04 08:36:15;;;;;;;0.57;0.57;;;23.00;68.60;;;;;;5028799;28;20286;-70
2022/09/04 08:38:55;;;;;;;0.90;0.90;;;23.00;68.70;;;;;;5031887;28;20199;-71
2022/09/04 08:42:19;;;;;;;0.70;0.70;;;23.10;68.80;;;;;;5033598;28;20203;-71
2022/09/04 08:45:23;;;;;;;0.60;0.60;;;23.10;68.70;;;;;;5031814;28;20230;-70
2022/09/04 08:48:45;;;;;;;0.75;0.75;;;23.10;68.80;;;;;;5015572;28;20194;-70
2022/09/04 08:51:46;;;;;;;0.60;0.60;;;23.10;68.80;;;;;;5031498;28;20222;-71
2022/09/04 08:54:47;;;;;;;0.90;0.90;;;23.10;68.80;;;;;;5032271;28;20182;-71
2022/09/04 08:57:31;;;;;;;0.73;0.73;;;23.10;68.80;;;;;;5031586;28;20247;-70
2022/09/04 09:00:10;;;;;;;0.60;0.60;;;23.10;69.70;;;;;;5033150;28;20199;-71
2022/09/04 09:03:03;;;;;;;1.65;0.80;;;23.10;69.10;;;;;;5032128;28;20167;-71
2022/09/04 09:06:34;;;;;;;0.77;0.77;;;23.10;69.00;;;;;;5031425;28;20202;-70
2022/09/04 09:09:08;;;;;;;0.80;0.80;;;23.10;69.00;;;;;;5031187;28;20274;-70
2022/09/04 09:12:30;;;;;;;0.60;0.60;;;23.10;69.10;;;;;;5032041;28;20244;-71
2022/09/04 09:15:23;;;;;;;0.70;0.70;;;23.10;69.10;;;;;;5031597;28;20283;-71
2022/09/04 09:18:32;;;;;;;0.90;0.90;;;23.20;69.10;;;;;;5031087;28;20249;-71
2022/09/04 09:21:10;;;;;;;0.90;0.90;;;23.20;69.20;;;;;;5015003;28;20195;-70
2022/09/04 09:23:40;;;;;;;0.60;0.60;;;23.20;69.30;;;;;;5032656;28;20182;-71
2022/09/04 09:26:28;;;;;;;0.80;0.80;;;23.20;69.30;;;;;;5015038;28;20267;-71
2022/09/04 09:29:18;;;;;;;0.70;0.70;;;23.20;69.30;;;;;;5031036;28;20176;-71
2022/09/04 09:32:45;;;;;;;0.80;0.80;;;23.20;69.40;;;;;;5031629;28;20199;-71
2022/09/04 09:35:57;;;;;;;0.70;0.70;;;23.20;69.40;;;;;;5000425;28;20207;-71
2022/09/04 09:38:48;;;;;;;0.70;0.70;;;23.20;69.30;;;;;;5026411;28;20199;-71
2022/09/04 09:41:52;;;;;;;1.20;0.80;;;23.20;69.30;;;;;;5033209;28;20206;-71
2022/09/04 09:44:36;;;;;;;0.60;0.60;;;23.20;69.40;;;;;;5032405;28;20182;-70
2022/09/04 09:47:13;;;;;;;0.70;0.70;;;23.20;69.50;;;;;;5015034;28;20189;-71
2022/09/04 09:50:15;;;;;;;0.90;0.63;;;23.20;70.20;;;;;;5031334;28;20211;-71
2022/09/04 09:52:57;;;;;;;0.77;0.77;;;23.30;69.60;;;;;;5021956;28;20234;-70
2022/09/04 09:55:57;;;;;;;0.65;0.65;;;23.20;69.50;;;;;;5032461;28;20214;-71
2022/09/04 09:59:09;;;;;;;0.70;0.70;;;23.30;69.60;;;;;;5014267;28;20619;-71
2022/09/04 10:03:03;;;;;;;0.70;0.70;;;23.30;69.60;;;;;;5031286;28;20179;-71
2022/09/04 10:06:00;;;;;;;0.70;0.70;;;23.30;69.60;;;;;;4988832;28;20246;-71
2022/09/04 10:08:47;;;;;;;0.77;0.70;;;23.20;69.50;;;;;;4974003;28;20188;-71
2022/09/04 10:11:27;;;;;;;0.70;0.70;;;23.20;69.60;;;;;;5035156;28;20705;-70
2022/09/04 10:14:19;;;;;;;0.80;0.80;;;23.30;69.70;;;;;;5036491;28;20175;-71
2022/09/04 10:17:25;;;;;;;0.80;0.80;;;23.30;69.60;;;;;;5036463;28;20621;-70
2022/09/04 10:20:30;;;;;;;0.80;0.80;;;23.30;69.60;;;;;;5034889;28;20234;-71
2022/09/04 10:23:45;;;;;;;0.90;0.90;;;23.30;69.60;;;;;;5051785;28;20191;-71
2022/09/04 10:26:55;;;;;;;0.77;0.77;;;23.30;69.40;;;;;;5035381;28;20565;-71
2022/09/04 10:30:15;;;;;;;0.70;0.70;;;23.30;69.50;;;;;;5027402;28;20294;-70
2022/09/04 10:33:42;;;;;;;1.00;0.80;;;23.40;69.70;;;;;;5018143;28;20223;-71
2022/09/04 10:36:24;;;;;;;0.85;0.85;;;23.30;69.60;;;;;;5012161;28;20228;-71
2022/09/04 10:42:43;;;;;;;1.50;0.68;;;23.40;69.70;;;;;;5034944;28;20187;-71
2022/09/04 10:45:24;;;;;;;0.75;0.75;;;23.40;69.70;;;;;;5034692;28;20194;-71
2022/09/04 10:48:27;;;;;;;0.70;0.70;;;23.40;69.70;;;;;;5034328;28;20233;-71
2022/09/04 10:50:58;;;;;;;0.70;0.70;;;23.30;69.50;;;;;;5036107;28;20209;-71
2022/09/04 10:53:50;;;;;;;0.70;0.70;;;23.40;69.60;;;;;;5035818;28;20218;-71
2022/09/04 10:56:29;;;;;;;0.70;0.70;;;23.40;69.60;;;;;;5034783;28;20195;-71
2022/09/04 10:59:32;;;;;;;1.05;0.80;;;23.40;69.60;;;;;;5034432;28;20172;-71
2022/09/04 11:02:09;;;;;;;0.80;0.80;;;23.40;69.50;;;;;;5034824;28;20202;-72
2022/09/04 11:05:00;;;;;;;0.70;0.70;;;23.40;69.60;;;;;;5034736;28;20206;-71
2022/09/04 11:08:17;;;;;;;0.88;0.70;;;23.40;69.60;;;;;;5017157;28;20245;-71
2022/09/04 11:10:55;;;;;;;0.90;0.90;;;23.40;69.60;;;;;;5034533;28;20215;-71
2022/09/04 11:13:55;;;;;;;0.80;0.80;;;23.40;69.60;;;;;;5035064;28;20321;-71
2022/09/04 11:17:23;;;;;;;0.60;0.60;;;23.40;69.60;;;;;;5034533;28;20252;-71
2022/09/04 11:20:50;;;;;;;0.80;0.80;;;23.40;69.50;;;;;;5000326;28;20214;-71
2022/09/04 11:24:02;;;;;;;0.80;0.80;;;23.40;69.40;;;;;;5034447;28;20251;-71
2022/09/04 11:27:02;;;;;;;1.05;1.05;;;23.40;69.40;;;;;;5035268;28;20217;-71
2022/09/04 11:29:55;;;;;;;0.90;0.90;;;23.40;70.20;;;;;;5035174;28;20210;-71
2022/09/04 11:32:43;;;;;;;0.95;0.95;;;23.40;69.40;;;;;;5032090;28;20219;-71
2022/09/04 11:35:47;;;;;;;0.77;0.77;;;23.40;69.40;;;;;;5035441;28;20191;-71
2022/09/04 11:39:16;;;;;;;0.93;0.93;;;23.40;69.40;;;;;;5014003;28;20207;-71
2022/09/04 11:42:23;;;;;;;0.77;0.77;;;23.40;69.40;;;;;;5017142;28;20394;-71
2022/09/04 11:45:21;;;;;;;0.70;0.70;;;23.40;69.40;;;;;;5033564;28;20194;-71
2022/09/04 11:48:08;;;;;;;0.88;0.80;;;23.50;69.50;;;;;;5033390;28;20257;-70
2022/09/04 11:50:42;;;;;;;0.80;0.80;;;23.40;69.30;;;;;;5034865;28;20210;-71
2022/09/04 11:54:06;;;;;;;0.75;0.75;;;23.40;69.30;;;;;;5033590;28;20171;-71
2022/09/04 11:57:02;;;;;;;0.88;0.88;;;23.40;69.20;;;;;;5033600;28;20233;-71
2022/09/04 11:59:47;;;;;;;0.70;0.70;;;23.40;69.20;;;;;;5033133;28;20247;-70
2022/09/04 12:02:31;;;;;;;0.70;0.70;;;23.50;69.30;;;;;;5033821;28;20195;-71
2022/09/04 12:05:23;;;;;;;0.70;0.70;;;23.40;69.10;;;;;;5032040;28;20203;-70
2022/09/04 12:08:43;;;;;;;1.00;1.00;;;23.40;69.00;;;;;;5032702;28;20219;-70
2022/09/04 12:11:37;;;;;;;0.80;0.80;;;23.40;69.10;;;;;;5025650;28;20230;-71
2022/09/04 12:14:40;;;;;;;0.75;0.70;;;23.50;69.10;;;;;;5033268;28;20198;-71
2022/09/04 12:17:24;;;;;;;0.90;0.90;;;23.50;69.10;;;;;;5034445;28;20225;-71
2022/09/04 12:19:57;;;;;;;0.90;0.90;;;23.50;69.10;;;;;;5016273;28;20687;-71
2022/09/04 12:22:41;;;;;;;1.00;1.00;;;23.50;69.10;;;;;;5032637;28;20199;-71
2022/09/04 12:25:22;;;;;;;0.80;0.80;;;23.50;69.00;;;;;;5033364;28;20183;-70
2022/09/04 12:28:36;;;;;;;0.80;0.80;;;23.50;68.90;;;;;;5032197;28;20199;-70
2022/09/04 12:31:50;;;;;;;0.95;0.95;;;23.50;68.90;;;;;;5032683;28;20207;-71
2022/09/04 12:34:37;;;;;;;0.88;0.88;;;23.50;69.00;;;;;;5032944;28;20172;-71
2022/09/04 12:37:42;;;;;;;0.73;0.70;;;23.50;68.90;;;;;;5040827;28;20188;-71
2022/09/04 12:40:33;;;;;;;0.98;0.70;;;23.50;68.90;;;;;;5032363;28;20207;-70
2022/09/04 12:43:28;;;;;;;0.80;0.80;;;23.50;68.90;;;;;;5033653;28;20687;-71
2022/09/04 12:46:34;;;;;;;0.70;0.70;;;23.50;68.90;;;;;;5032087;28;20183;-70
2022/09/04 12:49:32;;;;;;;0.90;0.90;;;23.50;68.70;;;;;;5015115;28;20191;-71
2022/09/04 12:52:45;;;;;;;0.80;0.80;;;23.50;68.80;;;;;;5048443;28;20218;-70
2022/09/04 12:55:13;;;;;;;1.60;1.00;;;23.50;68.70;;;;;;5011726;28;20203;-71
2022/09/04 12:58:16;;;;;;;0.90;0.90;;;23.50;68.70;;;;;;5032578;28;20208;-70
2022/09/04 13:01:21;;;;;;;0.80;0.80;;;23.50;68.80;;;;;;5015471;28;20252;-71
2022/09/04 13:04:20;;;;;;;0.80;0.80;;;23.50;68.70;;;;;;5033392;28;20254;-71
2022/09/04 13:07:00;;;;;;;1.08;0.98;;;23.50;68.70;;;;;;5031322;28;20191;-72
2022/09/04 13:10:02;;;;;;;0.88;0.88;;;23.50;68.70;;;;;;5015173;28;20649;-71
2022/09/04 13:13:00;;;;;;;0.95;0.95;;;23.50;68.70;;;;;;5032971;28;20195;-71
2022/09/04 13:15:50;;;;;;;0.80;0.80;;;23.50;68.70;;;;;;5025593;28;20202;-71
2022/09/04 13:18:58;;;;;;;0.75;0.75;;;23.50;68.60;;;;;;5031305;28;20191;-71
2022/09/04 13:21:58;;;;;;;1.23;1.13;;;23.50;68.60;;;;;;5014971;28;20189;-71
2022/09/04 13:24:50;;;;;;;0.73;0.73;;;23.50;68.40;;;;;;5048255;28;20547;-71
2022/09/04 13:27:56;;;;;;;0.70;0.70;;;23.50;68.50;;;;;;5015338;28;20183;-70
2022/09/04 13:30:24;;;;;;;1.00;0.90;;;23.50;68.50;;;;;;5015290;28;20214;-70
2022/09/04 13:33:05;;;;;;;0.88;0.88;;;23.50;68.50;;;;;;5031300;28;20223;-71
2022/09/04 13:36:00;;;;;;;1.00;0.80;;;23.50;68.60;;;;;;5014908;28;20306;-70
2022/09/04 13:38:50;;;;;;;0.82;0.82;;;23.50;68.40;;;;;;5041558;28;20203;-71
2022/09/04 13:42:05;;;;;;;1.08;1.05;;;23.60;68.40;;;;;;5014719;28;20612;-71
2022/09/04 13:44:44;;;;;;;0.82;0.82;;;23.60;68.50;;;;;;5014795;28;20201;-71
2022/09/04 13:47:21;;;;;;;0.60;0.60;;;23.60;68.40;;;;;;5011410;28;20183;-70
2022/09/04 13:50:09;;;;;;;0.70;0.70;;;23.50;68.30;;;;;;5011250;28;20212;-71
2022/09/04 13:53:15;;;;;;;0.90;0.90;;;23.50;68.40;;;;;;5027823;28;20216;-72
2022/09/04 13:55:53;;;;;;;0.80;0.80;;;23.50;68.30;;;;;;5009558;28;20200;-71
2022/09/04 13:58:50;;;;;;;0.73;0.73;;;23.60;68.40;;;;;;5027657;28;20176;-71
2022/09/04 14:01:28;;;;;;;0.93;0.93;;;23.60;68.40;;;;;;5011886;28;20211;-71
2022/09/04 14:04:03;;;;;;;0.93;0.80;;;23.50;68.40;;;;;;5011562;28;20583;-71
2022/09/04 14:06:31;;;;;;;1.02;0.93;;;23.60;68.40;;;;;;5028221;28;20190;-71
2022/09/04 14:09:02;;;;;;;0.98;0.98;;;23.60;68.50;;;;;;5030831;28;20270;-71
2022/09/04 14:12:02;;;;;;;0.80;0.80;;;23.60;68.60;;;;;;5032683;28;20198;-71
2022/09/04 14:15:14;;;;;;;0.90;0.90;;;23.60;68.50;;;;;;5031579;28;20242;-71
2022/09/04 14:18:12;;;;;;;1.05;0.95;;;23.60;68.50;;;;;;5025287;28;20226;-70
2022/09/04 14:21:24;;;;;;;0.90;0.90;;;23.60;68.50;;;;;;5032328;28;20226;-70
2022/09/04 14:24:32;;;;;;;0.90;0.90;;;23.60;68.40;;;;;;5014196;28;20207;-71
2022/09/04 14:27:42;;;;;;;0.88;0.88;;;23.60;68.20;;;;;;5031325;28;20186;-71
2022/09/04 14:30:16;;;;;;;1.05;1.00;;;23.60;68.40;;;;;;5011456;28;20239;-71
2022/09/04 14:32:56;;;;;;;0.80;0.80;;;23.60;68.50;;;;;;5010888;28;20207;-71
2022/09/04 14:35:48;;;;;;;0.93;0.93;;;23.60;68.50;;;;;;5047779;28;20191;-71
2022/09/04 14:38:31;;;;;;;0.90;0.90;;;23.60;68.60;;;;;;5008847;28;20184;-71
2022/09/04 14:41:30;;;;;;;1.60;0.90;;;23.60;68.50;;;;;;5031142;28;20211;-71
2022/09/04 14:44:13;;;;;;;0.90;0.90;;;23.60;68.20;;;;;;5031357;28;20202;-71
2022/09/04 14:47:25;;;;;;;0.70;0.70;;;23.60;68.40;;;;;;5032387;28;20245;-71
2022/09/04 14:49:55;;;;;;;1.00;1.00;;;23.60;68.30;;;;;;5032426;28;20225;-70
2022/09/04 14:52:49;;;;;;;0.70;0.70;;;23.60;68.40;;;;;;5051067;28;20270;-71
2022/09/04 14:55:33;;;;;;;0.90;0.90;;;23.60;68.20;;;;;;5035084;28;20201;-71
2022/09/04 14:58:26;;;;;;;1.08;0.93;;;23.60;68.10;;;;;;5034348;28;20180;-71
2022/09/04 15:01:05;;;;;;;0.63;0.63;;;23.60;68.30;;;;;;5034759;28;20214;-70
2022/09/04 15:04:07;;;;;;;1.00;1.00;;;23.60;68.20;;;;;;5034907;28;20183;-71
2022/09/04 15:06:51;;;;;;;0.70;0.70;;;23.60;69.00;;;;;;5034661;28;20187;-71
2022/09/04 15:09:36;;;;;;;1.08;1.08;;;23.60;67.90;;;;;;5015423;28;20165;-71
2022/09/04 15:12:32;;;;;;;0.98;0.98;;;23.60;68.20;;;;;;5015012;28;20206;-71